To NAV CANADA Home Page Login to a new session Search on AWWS site Feedback and Comments Disclaimer Vers la page française équivalente Tips FAQ What's new on the site To the Forecasts and Observations / NOTAM section To "File a Flight Plan" website Publications and other links Update of the User's profile FIC Telephone Numbers My Weather Data Folder Route Weather Data Regional Weather Data Local Weather Data To the Forecasts and Observations / NOTAM section
Request Generated 08/22/2017 at 03:24:36 UTC . Weather information available at that time is displayed.

METAR/TAF

CLYDE RIVER/NU    (show WxCam)

SPECI CYCY 220320Z AUTO 32021G27KT 6SM -RA BR OVC007 03/01 A2974 RMK
SLP075=
SPECI CYCY 220311Z AUTO 32021G30KT 4SM -RA BR OVC007 02/02 A2974 RMK
SLP076=
SPECI CYCY 220308Z AUTO 32021G32KT 5SM BR OVC007 03/01 A2974 RMK
PRESFR SLP075=
METAR CYCY 220300Z AUTO 31027G32KT 9SM OVC007 03/01 A2975 RMK SLP077=
SPECI CYCY 220259Z AUTO 32026G32KT 9SM OVC007 03/01 A2975 RMK SLP077=
METAR CYCY 220200Z AUTO 32016G24KT 9SM OVC007 03/02 A2977 RMK SLP086=
SPECI CYCY 220143Z AUTO 32019KT 9SM OVC007 03/02 A2977 RMK SLP086=
METAR CYCY 220100Z AUTO 32019G26KT 9SM OVC015 04/01 A2979 RMK SLP090=

TAF AMD CYCY 220315Z 2203/2213 34020G30KT 2SM -RA BR FEW002 BKN006
OVC010 TEMPO 2203/2213 6SM BR SCT006 OVC012 PROB30 2203/2213
1/2SM -DZ FG BKN002
RMK FCST BASED ON AUTO OBS. NXT FCST BY 220700Z=
Your time UTC time
Weather data provided by Environment Canada and NAV CANADA